Time;durP1;ratioP1;P1;durP2;ratioP2;P2;SDS_P1;SDS_P2;PMS_P1;PMS_P2;Temp;Humidity;BMP_temperature;BMP_pressure;BME280_temperature;BME280_humidity;BME280_pressure;Samples;Min_cycle;Max_cycle;Signal;HPM_P1;HPM_P2
2022/12/04 00:00:55;;;;;;;;;;;10.20;90.50;;;;;;5095113;28;20415;-88
2022/12/04 00:03:21;;;;;;;;;;;10.20;90.50;;;;;;5095119;28;20411;-89
2022/12/04 00:05:47;;;;;;;;;;;10.30;90.40;;;;;;5095068;28;20015;-88
2022/12/04 00:08:12;;;;;;;;;;;10.30;90.20;;;;;;5094946;28;19971;-89
2022/12/04 00:10:42;;;;;;;;;;;10.30;90.20;;;;;;5094961;28;19940;-89
2022/12/04 00:13:08;;;;;;;;;;;10.30;90.40;;;;;;5094918;28;19972;-88
2022/12/04 00:15:33;;;;;;;;;;;10.30;90.30;;;;;;5094827;28;20442;-88
2022/12/04 00:17:59;;;;;;;;;;;10.30;90.40;;;;;;5094673;28;19972;-88
2022/12/04 00:20:24;;;;;;;;;;;10.30;90.20;;;;;;5094776;28;20038;-88
2022/12/04 00:22:50;;;;;;;;;;;10.30;90.30;;;;;;5094525;28;20039;-88
2022/12/04 00:25:15;;;;;;;;;;;10.30;90.30;;;;;;5094513;28;19972;-89
2022/12/04 00:27:41;;;;;;;;;;;10.30;90.30;;;;;;5094604;28;20526;-88
2022/12/04 00:30:07;;;;;;;;;;;10.30;90.30;;;;;;5094570;28;19972;-88
2022/12/04 00:32:33;;;;;;;;;;;10.40;90.30;;;;;;5094480;28;19937;-89
2022/12/04 00:34:58;;;;;;;;;;;10.30;90.40;;;;;;5094492;28;19992;-88
2022/12/04 00:37:24;;;;;;;;;;;10.30;90.40;;;;;;5094328;28;19960;-89
2022/12/04 00:39:49;;;;;;;;;;;10.20;90.40;;;;;;5094417;28;19981;-88
2022/12/04 00:42:15;;;;;;;;;;;10.20;90.30;;;;;;5094375;28;20025;-88
2022/12/04 00:44:40;;;;;;;;;;;10.30;90.20;;;;;;5094343;28;19935;-88
2022/12/04 00:47:06;;;;;;;;;;;10.30;90.10;;;;;;5094219;28;20301;-88
2022/12/04 00:49:31;;;;;;;;;;;10.20;90.00;;;;;;5094240;28;19943;-88
2022/12/04 00:51:57;;;;;;;;;;;10.20;90.00;;;;;;5094115;28;20441;-89
2022/12/04 00:54:22;;;;;;;;;;;10.30;89.70;;;;;;5075847;28;19986;-89
2022/12/04 00:56:48;;;;;;;;;;;10.30;89.30;;;;;;5094001;28;19960;-89
2022/12/04 00:59:14;;;;;;;;;;;10.30;89.00;;;;;;5094049;28;19989;-88
2022/12/04 01:01:39;;;;;;;;;;;10.30;88.80;;;;;;5093845;28;20041;-88
2022/12/04 01:04:05;;;;;;;;;;;10.30;88.60;;;;;;5093963;28;19985;-88
2022/12/04 01:06:31;;;;;;;;;;;10.40;88.50;;;;;;5093874;28;20417;-88
2022/12/04 01:08:57;;;;;;;;;;;10.40;88.40;;;;;;5075692;28;20394;-89
2022/12/04 01:11:23;;;;;;;;;;;10.40;88.40;;;;;;5093834;28;19945;-88
2022/12/04 01:13:49;;;;;;;;;;;10.40;88.30;;;;;;5093782;28;19999;-88
2022/12/04 01:16:16;;;;;;;;;;;10.40;88.10;;;;;;5093620;28;20370;-88
2022/12/04 01:18:41;;;;;;;;;;;10.40;88.00;;;;;;5093711;28;20429;-88
2022/12/04 01:21:07;;;;;;;;;;;10.40;88.00;;;;;;5093708;28;19936;-88
2022/12/04 01:23:32;;;;;;;;;;;10.40;88.00;;;;;;5093412;28;20528;-88
2022/12/04 01:25:58;;;;;;;;;;;10.50;87.80;;;;;;5093554;28;19941;-88
2022/12/04 01:28:24;;;;;;;;;;;10.50;87.80;;;;;;5093547;28;19936;-88
2022/12/04 01:31:01;;;;;;;;;;;10.50;87.70;;;;;;5093505;28;19947;-89
2022/12/04 01:33:28;;;;;;;;;;;10.40;87.80;;;;;;5093421;28;19938;-89
2022/12/04 01:35:54;;;;;;;;;;;10.50;87.80;;;;;;5093368;28;19963;-88
2022/12/04 01:38:20;;;;;;;;;;;10.50;87.80;;;;;;5093406;28;19944;-88
2022/12/04 01:40:45;;;;;;;;;;;10.50;87.60;;;;;;5093376;28;20032;-89
2022/12/04 01:43:11;;;;;;;;;;;10.50;87.70;;;;;;5093327;28;20029;-88
2022/12/04 01:45:55;;;;;;;;;;;10.50;87.80;;;;;;5093283;28;19936;-88
2022/12/04 01:48:29;;;;;;;;;;;10.60;87.80;;;;;;5093274;28;20025;-89
2022/12/04 01:51:07;;;;;;;;;;;10.60;87.70;;;;;;5093250;28;19938;-89
2022/12/04 01:53:34;;;;;;;;;;;10.50;87.70;;;;;;5093002;28;19959;-89
2022/12/04 01:56:01;;;;;;;;;;;10.60;87.70;;;;;;5093187;28;19941;-88
2022/12/04 01:58:29;;;;;;;;;;;10.60;87.50;;;;;;5093422;28;19944;-88
2022/12/04 02:00:57;;;;;;;;;;;10.60;87.40;;;;;;5093148;28;19948;-89
2022/12/04 02:03:23;;;;;;;;;;;10.60;87.50;;;;;;5093117;28;19949;-88
2022/12/04 02:05:48;;;;;;;;;;;10.70;87.20;;;;;;5093140;28;19940;-88
2022/12/04 02:08:14;;;;;;;;;;;10.70;86.90;;;;;;5093089;28;19939;-88
2022/12/04 02:11:06;;;;;;;;;;;10.70;86.70;;;;;;5093090;28;20412;-88
2022/12/04 02:13:52;;;;;;;;;;;10.70;86.60;;;;;;5056215;28;19951;-88
2022/12/04 02:16:23;;;;;;;;;;;10.80;86.40;;;;;;5079364;28;19961;-88
2022/12/04 02:19:06;;;;;;;;;;;10.70;86.50;;;;;;5097105;28;19946;-89
2022/12/04 02:21:32;;;;;;;;;;;10.70;86.60;;;;;;5097038;28;20079;-89
2022/12/04 02:24:01;;;;;;;;;;;10.80;86.50;;;;;;5096855;28;19976;-89
2022/12/04 02:26:36;;;;;;;;;;;10.80;86.60;;;;;;5096981;28;19934;-89
2022/12/04 02:29:02;;;;;;;;;;;10.70;86.50;;;;;;5096924;28;19942;-89
2022/12/04 02:31:33;;;;;;;;;;;10.70;86.60;;;;;;5096854;28;19989;-89
2022/12/04 02:34:08;;;;;;;;;;;10.80;86.70;;;;;;5096864;28;19936;-89
2022/12/04 02:36:39;;;;;;;;;;;10.70;86.80;;;;;;5096714;28;19988;-89
2022/12/04 02:39:11;;;;;;;;;;;10.70;86.70;;;;;;5096734;28;19937;-89
2022/12/04 02:41:39;;;;;;;;;;;10.70;86.80;;;;;;5096649;28;19944;-89
2022/12/04 02:44:12;;;;;;;;;;;10.70;86.90;;;;;;5096631;28;19958;-88
2022/12/04 02:46:42;;;;;;;;;;;10.70;87.10;;;;;;5096583;28;19987;-89
2022/12/04 02:49:11;;;;;;;;;;;10.70;87.00;;;;;;5096400;28;20409;-88
2022/12/04 02:51:39;;;;;;;;;;;10.70;87.20;;;;;;5096426;28;20430;-88
2022/12/04 02:54:08;;;;;;;;;;;10.70;87.00;;;;;;5095941;28;19949;-89
2022/12/04 02:56:35;;;;;;;;;;;10.70;87.00;;;;;;5096342;28;19963;-89
2022/12/04 02:59:03;;;;;;;;;;;10.70;87.20;;;;;;5096342;28;19938;-88
2022/12/04 03:01:32;;;;;;;;;;;10.70;87.20;;;;;;5096336;28;19945;-89
2022/12/04 03:04:04;;;;;;;;;;;10.70;87.40;;;;;;5078078;28;20289;-89
2022/12/04 03:06:32;;;;;;;;;;;10.60;87.50;;;;;;5078075;28;19995;-89
2022/12/04 03:09:01;;;;;;;;;;;10.60;87.70;;;;;;5096147;28;20035;-88
2022/12/04 03:11:28;;;;;;;;;;;10.60;87.90;;;;;;5096128;28;19979;-89
2022/12/04 03:13:58;;;;;;;;;;;10.70;87.90;;;;;;5096098;28;20020;-88
2022/12/04 03:16:26;;;;;;;;;;;10.50;88.40;;;;;;5095959;28;19957;-89
2022/12/04 03:19:12;;;;;;;;;;;10.60;88.40;;;;;;5095912;28;20045;-89
2022/12/04 03:21:40;;;;;;;;;;;10.60;88.40;;;;;;5095408;28;19950;-89
2022/12/04 03:24:21;;;;;;;;;;;10.60;88.40;;;;;;5094814;28;19977;-88
2022/12/04 03:26:49;;;;;;;;;;;10.60;88.40;;;;;;5095725;28;20409;-89
2022/12/04 03:29:36;;;;;;;;;;;10.60;88.60;;;;;;5095703;28;19938;-89
2022/12/04 03:32:02;;;;;;;;;;;10.60;88.80;;;;;;5095746;28;19946;-89
2022/12/04 03:34:48;;;;;;;;;;;10.60;88.80;;;;;;5095685;28;19957;-89
2022/12/04 03:37:15;;;;;;;;;;;10.60;89.00;;;;;;5094804;28;20007;-89
2022/12/04 03:39:46;;;;;;;;;;;10.50;88.90;;;;;;5095522;28;19941;-89
2022/12/04 03:42:11;;;;;;;;;;;10.50;89.00;;;;;;5095466;28;20323;-88
2022/12/04 03:44:39;;;;;;;;;;;10.60;88.90;;;;;;5095453;28;19941;-89
2022/12/04 03:47:07;;;;;;;;;;;10.60;88.90;;;;;;5095428;28;19943;-89
2022/12/04 03:49:36;;;;;;;;;;;10.60;89.00;;;;;;5095328;28;20319;-89
2022/12/04 03:52:06;;;;;;;;;;;10.60;89.30;;;;;;5095246;28;19951;-88
2022/12/04 03:54:34;;;;;;;;;;;10.50;89.40;;;;;;5095211;28;19967;-89
2022/12/04 03:57:05;;;;;;;;;;;10.60;89.40;;;;;;5095171;28;20051;-89
2022/12/04 03:59:53;;;;;;;;;;;10.60;89.30;;;;;;5095116;28;19938;-88
2022/12/04 04:02:20;;;;;;;;;;;10.60;89.50;;;;;;5095135;28;19938;-89
2022/12/04 04:04:48;;;;;;;;;;;10.60;89.70;;;;;;5095100;28;20487;-88
2022/12/04 04:07:21;;;;;;;;;;;10.60;89.70;;;;;;5095063;28;19939;-88
2022/12/04 04:09:49;;;;;;;;;;;10.70;89.70;;;;;;5095005;28;20389;-88
2022/12/04 04:12:20;;;;;;;;;;;10.60;89.60;;;;;;5076799;28;20037;-88
2022/12/04 04:26:20;;;;;;;;;;;10.70;89.40;;;;;;5094682;28;19945;-88
2022/12/04 04:28:45;;;;;;;;;;;10.70;89.60;;;;;;5094581;28;20081;-89
2022/12/04 04:31:31;;;;;;;;;;;10.70;89.80;;;;;;5094854;28;20434;-88
2022/12/04 04:34:00;;;;;;;;;;;10.60;90.10;;;;;;5094549;28;19942;-88
2022/12/04 04:36:46;;;;;;;;;;;10.50;90.30;;;;;;5093976;28;19958;-88
2022/12/04 04:39:27;;;;;;;;;;;10.50;90.40;;;;;;5093715;28;19941;-88
2022/12/04 04:42:02;;;;;;;;;;;10.40;90.40;;;;;;5094384;28;19940;-88
2022/12/04 04:44:36;;;;;;;;;;;10.40;90.30;;;;;;5094530;28;19989;-88
2022/12/04 04:47:05;;;;;;;;;;;10.40;90.10;;;;;;5076027;28;19941;-89
2022/12/04 04:49:32;;;;;;;;;;;10.40;89.60;;;;;;5094191;28;20071;-89
2022/12/04 04:51:58;;;;;;;;;;;10.40;89.00;;;;;;5094094;28;19960;-88
2022/12/04 04:54:24;;;;;;;;;;;10.40;88.70;;;;;;5093968;28;19964;-89
2022/12/04 04:56:50;;;;;;;;;;;10.40;88.80;;;;;;5075838;28;20320;-89
2022/12/04 04:59:16;;;;;;;;;;;10.40;88.80;;;;;;5075857;28;20414;-89
2022/12/04 05:01:43;;;;;;;;;;;10.40;89.00;;;;;;5094013;28;20404;-88
2022/12/04 05:04:09;;;;;;;;;;;10.30;89.00;;;;;;5093953;28;19988;-88
2022/12/04 05:06:35;;;;;;;;;;;10.30;88.80;;;;;;5093882;28;19974;-88
2022/12/04 05:09:01;;;;;;;;;;;10.30;88.90;;;;;;5093874;28;19936;-89
2022/12/04 05:11:27;;;;;;;;;;;10.30;88.80;;;;;;5093828;28;19991;-89
2022/12/04 05:13:53;;;;;;;;;;;10.30;88.60;;;;;;5093736;28;19945;-89
2022/12/04 05:16:18;;;;;;;;;;;10.30;88.60;;;;;;5093626;28;19959;-88
2022/12/04 05:21:28;;;;;;;;;;;10.30;88.10;;;;;;5093659;28;19971;-89
2022/12/04 05:23:54;;;;;;;;;;;10.30;87.90;;;;;;5093304;28;19979;-89
2022/12/04 05:26:19;;;;;;;;;;;10.30;87.90;;;;;;5093605;28;20306;-89
2022/12/04 05:28:45;;;;;;;;;;;10.30;87.90;;;;;;5093578;28;19960;-89
2022/12/04 05:31:10;;;;;;;;;;;10.30;87.80;;;;;;5093468;28;19940;-89
2022/12/04 05:33:36;;;;;;;;;;;10.30;87.70;;;;;;5093480;28;19936;-89
2022/12/04 05:36:03;;;;;;;;;;;10.30;87.90;;;;;;5093379;28;19941;-89
2022/12/04 05:38:29;;;;;;;;;;;10.30;87.90;;;;;;5093463;28;19942;-89
2022/12/04 05:40:56;;;;;;;;;;;10.20;88.20;;;;;;5093379;28;20305;-89
2022/12/04 05:43:22;;;;;;;;;;;10.10;88.80;;;;;;5093319;28;19948;-89
2022/12/04 05:45:48;;;;;;;;;;;10.10;88.90;;;;;;5093358;28;19935;-88
2022/12/04 05:48:14;;;;;;;;;;;10.00;89.30;;;;;;5092600;28;19946;-88
2022/12/04 05:50:39;;;;;;;;;;;10.00;89.60;;;;;;5093281;28;20502;-88
2022/12/04 05:53:05;;;;;;;;;;;9.90;90.10;;;;;;5093045;28;19958;-89
2022/12/04 05:55:31;;;;;;;;;;;9.90;90.40;;;;;;5093289;28;19942;-89
2022/12/04 05:57:56;;;;;;;;;;;9.90;90.50;;;;;;5093148;28;20398;-89
2022/12/04 06:00:22;;;;;;;;;;;9.80;90.80;;;;;;5093223;28;20387;-89
2022/12/04 06:02:47;;;;;;;;;;;9.80;90.70;;;;;;5093122;28;19935;-89
2022/12/04 06:05:13;;;;;;;;;;;9.80;91.00;;;;;;5093173;28;20422;-89
2022/12/04 06:07:38;;;;;;;;;;;9.80;91.30;;;;;;5093139;28;20005;-88
2022/12/04 06:10:05;;;;;;;;;;;9.70;91.50;;;;;;5093091;28;20463;-88
2022/12/04 06:12:30;;;;;;;;;;;9.70;91.70;;;;;;5092998;28;19948;-89
2022/12/04 06:14:56;;;;;;;;;;;9.70;92.00;;;;;;5093315;28;19971;-89
2022/12/04 06:17:21;;;;;;;;;;;9.70;92.20;;;;;;5092997;28;20329;-88
2022/12/04 06:19:47;;;;;;;;;;;9.60;92.50;;;;;;5092980;28;20046;-89
2022/12/04 06:22:12;;;;;;;;;;;9.60;92.70;;;;;;5092971;28;19998;-88
2022/12/04 06:24:38;;;;;;;;;;;9.60;92.90;;;;;;5092793;28;19976;-88
2022/12/04 06:27:04;;;;;;;;;;;9.60;93.10;;;;;;5092974;28;19948;-89
2022/12/04 06:29:30;;;;;;;;;;;9.60;93.10;;;;;;5093129;28;19959;-88
2022/12/04 06:31:55;;;;;;;;;;;9.60;93.20;;;;;;5092854;28;20026;-89
2022/12/04 06:34:21;;;;;;;;;;;9.70;93.20;;;;;;5092918;28;20036;-88
2022/12/04 06:36:47;;;;;;;;;;;9.70;93.30;;;;;;5092786;28;19956;-88
2022/12/04 06:39:12;;;;;;;;;;;9.70;93.20;;;;;;5092845;28;20010;-89
2022/12/04 06:41:38;;;;;;;;;;;9.70;93.20;;;;;;5092829;28;19969;-89
2022/12/04 06:44:03;;;;;;;;;;;9.80;93.20;;;;;;5092787;28;19935;-89
2022/12/04 06:46:30;;;;;;;;;;;9.80;93.10;;;;;;5092763;28;20044;-89
2022/12/04 06:48:57;;;;;;;;;;;9.80;93.20;;;;;;5092734;28;19937;-89
2022/12/04 06:51:24;;;;;;;;;;;9.90;93.20;;;;;;5092960;28;19948;-89
2022/12/04 06:53:49;;;;;;;;;;;9.90;93.20;;;;;;5092548;28;20410;-88
2022/12/04 06:56:16;;;;;;;;;;;9.90;93.20;;;;;;5092544;28;19949;-89
2022/12/04 06:58:43;;;;;;;;;;;9.90;93.30;;;;;;5093120;28;20001;-89
2022/12/04 07:01:10;;;;;;;;;;;9.90;93.30;;;;;;5096335;28;19944;-89
2022/12/04 07:03:35;;;;;;;;;;;9.90;93.40;;;;;;5096272;28;20330;-89
2022/12/04 07:06:10;;;;;;;;;;;9.90;93.40;;;;;;5078036;28;19951;-88
2022/12/04 07:08:36;;;;;;;;;;;9.90;93.40;;;;;;5078031;28;19943;-89
2022/12/04 07:11:01;;;;;;;;;;;9.90;93.40;;;;;;5096183;28;19936;-89
2022/12/04 07:13:27;;;;;;;;;;;9.90;93.30;;;;;;5096077;28;19987;-89
2022/12/04 07:15:52;;;;;;;;;;;10.00;93.30;;;;;;5096059;28;20294;-89
2022/12/04 07:18:18;;;;;;;;;;;10.00;93.10;;;;;;5095966;28;20000;-89
2022/12/04 07:20:43;;;;;;;;;;;10.00;93.00;;;;;;5095982;28;20011;-89
2022/12/04 07:23:09;;;;;;;;;;;10.00;92.90;;;;;;5099661;22;19973;-89
2022/12/04 07:25:37;;;;;;;;;;;10.10;92.80;;;;;;5057657;28;19949;-89
2022/12/04 07:28:03;;;;;;;;;;;10.10;92.90;;;;;;5075603;28;19943;-88
2022/12/04 07:30:28;;;;;;;;;;;10.10;93.00;;;;;;5057521;28;19953;-88
2022/12/04 07:32:54;;;;;;;;;;;10.10;93.10;;;;;;5075747;28;20323;-89
2022/12/04 07:35:20;;;;;;;;;;;10.00;93.20;;;;;;5075723;28;20402;-89
2022/12/04 07:37:45;;;;;;;;;;;10.00;93.30;;;;;;5075328;28;20421;-89
2022/12/04 07:40:11;;;;;;;;;;;10.00;93.40;;;;;;5075563;28;19944;-89
2022/12/04 07:42:36;;;;;;;;;;;10.00;93.50;;;;;;5075311;28;20407;-89
2022/12/04 07:45:02;;;;;;;;;;;10.10;93.60;;;;;;5075231;28;20119;-89
2022/12/04 07:47:28;;;;;;;;;;;10.10;93.70;;;;;;5075242;28;19940;-89
2022/12/04 07:49:53;;;;;;;;;;;10.00;93.70;;;;;;5057272;28;19984;-89
2022/12/04 07:52:19;;;;;;;;;;;10.10;93.60;;;;;;5075032;28;19957;-89
2022/12/04 07:54:44;;;;;;;;;;;10.10;93.60;;;;;;5075012;28;19942;-88
2022/12/04 07:57:10;;;;;;;;;;;10.10;93.40;;;;;;5075005;28;19957;-88
2022/12/04 07:59:35;;;;;;;;;;;10.20;93.30;;;;;;5074990;28;19959;-89
2022/12/04 08:02:01;;;;;;;;;;;10.20;93.20;;;;;;5075211;28;19946;-89
2022/12/04 08:04:26;;;;;;;;;;;10.30;93.20;;;;;;5074919;28;20355;-89
2022/12/04 08:06:52;;;;;;;;;;;10.20;93.00;;;;;;5074857;28;20309;-88
2022/12/04 08:09:17;;;;;;;;;;;10.30;92.80;;;;;;5074786;28;19942;-89
2022/12/04 08:11:43;;;;;;;;;;;10.20;92.80;;;;;;5074033;28;19941;-89
2022/12/04 08:14:10;;;;;;;;;;;10.30;92.80;;;;;;5056780;28;20318;-89
2022/12/04 08:16:36;;;;;;;;;;;10.40;92.80;;;;;;5074583;28;19965;-89
2022/12/04 08:19:02;;;;;;;;;;;10.40;92.60;;;;;;5074564;28;19939;-89
2022/12/04 08:21:28;;;;;;;;;;;10.40;92.70;;;;;;5074537;28;19963;-89
2022/12/04 08:23:55;;;;;;;;;;;10.40;92.50;;;;;;5074323;28;19973;-89
2022/12/04 08:26:23;;;;;;;;;;;10.40;92.50;;;;;;5074440;28;19945;-88
2022/12/04 08:28:51;;;;;;;;;;;10.40;92.50;;;;;;5074390;28;19971;-89
2022/12/04 08:31:18;;;;;;;;;;;10.50;92.40;;;;;;5074345;28;19935;-89
2022/12/04 08:33:44;;;;;;;;;;;10.60;92.20;;;;;;5074544;28;19978;-89
2022/12/04 08:36:11;;;;;;;;;;;10.50;92.10;;;;;;5056364;28;20022;-89
2022/12/04 08:38:37;;;;;;;;;;;10.50;92.20;;;;;;5074179;28;19937;-89
2022/12/04 08:41:04;;;;;;;;;;;10.60;91.90;;;;;;5074162;28;19999;-89
2022/12/04 08:43:29;;;;;;;;;;;10.60;91.60;;;;;;5074086;28;19944;-89
2022/12/04 08:46:00;;;;;;;;;;;10.60;91.80;;;;;;5073987;28;20031;-89
2022/12/04 08:48:26;;;;;;;;;;;10.70;91.70;;;;;;5056376;28;19942;-89
2022/12/04 08:50:51;;;;;;;;;;;10.60;91.40;;;;;;5073933;28;19945;-89
2022/12/04 08:53:17;;;;;;;;;;;10.70;91.40;;;;;;5073742;28;19936;-89
2022/12/04 08:55:42;;;;;;;;;;;10.70;91.20;;;;;;5073844;28;19941;-89
2022/12/04 08:58:08;;;;;;;;;;;10.70;91.30;;;;;;5073766;28;19983;-89
2022/12/04 09:00:34;;;;;;;;;;;10.70;91.30;;;;;;5073792;28;19979;-89
2022/12/04 09:02:59;;;;;;;;;;;10.70;91.40;;;;;;5073731;28;20010;-89
2022/12/04 09:05:25;;;;;;;;;;;10.70;91.60;;;;;;5056035;28;19953;-89
2022/12/04 09:07:50;;;;;;;;;;;10.70;91.60;;;;;;5073911;28;19952;-89
2022/12/04 09:10:16;;;;;;;;;;;10.70;91.90;;;;;;5073626;28;20440;-89
2022/12/04 09:12:41;;;;;;;;;;;10.70;91.90;;;;;;5073595;28;20402;-89
2022/12/04 09:15:07;;;;;;;;;;;10.70;91.90;;;;;;5073427;28;19947;-89
2022/12/04 09:17:34;;;;;;;;;;;10.70;91.70;;;;;;5073669;28;19965;-89
2022/12/04 09:19:59;;;;;;;;;;;10.70;91.90;;;;;;5073456;28;20022;-89
2022/12/04 09:22:25;;;;;;;;;;;10.70;91.80;;;;;;5072746;28;19973;-89
2022/12/04 09:24:50;;;;;;;;;;;10.70;91.50;;;;;;5073235;28;19972;-89
2022/12/04 09:27:16;;;;;;;;;;;10.70;91.00;;;;;;5073328;28;19988;-89
2022/12/04 09:29:41;;;;;;;;;;;10.70;90.70;;;;;;5073347;28;19937;-89
2022/12/04 09:32:07;;;;;;;;;;;10.60;90.80;;;;;;5073301;28;20031;-89
2022/12/04 09:34:32;;;;;;;;;;;10.60;90.30;;;;;;5073248;28;19946;-89
2022/12/04 09:36:58;;;;;;;;;;;10.60;90.00;;;;;;5073230;28;19964;-89
2022/12/04 09:39:23;;;;;;;;;;;10.60;89.90;;;;;;5073273;28;19943;-89
2022/12/04 09:42:08;;;;;;;;;;;10.60;89.40;;;;;;5073197;28;19937;-89
2022/12/04 09:44:35;;;;;;;;;;;10.60;89.30;;;;;;5055193;28;19946;-89
2022/12/04 09:47:02;;;;;;;;;;;10.60;89.50;;;;;;5073384;28;19946;-89
2022/12/04 09:49:36;;;;;;;;;;;10.70;89.70;;;;;;5073104;28;19951;-89
2022/12/04 09:52:05;;;;;;;;;;;10.80;89.80;;;;;;5072974;28;20086;-89
2022/12/04 09:54:37;;;;;;;;;;;10.90;89.60;;;;;;5073015;28;19936;-89
2022/12/04 09:57:15;;;;;;;;;;;10.90;89.10;;;;;;5072920;28;19968;-89
2022/12/04 09:59:40;;;;;;;;;;;10.90;88.90;;;;;;5073049;28;19941;-89
2022/12/04 10:02:09;;;;;;;;;;;11.00;89.10;;;;;;5072975;28;19948;-89
2022/12/04 10:04:34;;;;;;;;;;;11.10;88.90;;;;;;5073016;28;19944;-89
2022/12/04 10:07:12;;;;;;;;;;;11.10;88.30;;;;;;5072980;28;19938;-89
2022/12/04 10:09:39;;;;;;;;;;;10.90;87.80;;;;;;5072914;28;19945;-89
2022/12/04 10:12:22;;;;;;;;;;;10.90;88.30;;;;;;5072836;28;19956;-89
2022/12/04 10:14:48;;;;;;;;;;;10.90;88.50;;;;;;5072879;28;20022;-89
2022/12/04 10:17:32;;;;;;;;;;;10.90;88.50;;;;;;5072776;28;20003;-89
2022/12/04 10:20:10;;;;;;;;;;;10.90;88.40;;;;;;5072809;28;19940;-89
2022/12/04 10:22:51;;;;;;;;;;;10.90;88.60;;;;;;5072767;28;20292;-89
2022/12/04 10:25:19;;;;;;;;;;;10.90;88.90;;;;;;5054799;28;20395;-90
2022/12/04 10:27:54;;;;;;;;;;;11.00;88.60;;;;;;5054753;28;19943;-89
2022/12/04 10:30:20;;;;;;;;;;;10.90;88.80;;;;;;5072704;28;20026;-89
2022/12/04 10:32:46;;;;;;;;;;;10.90;88.50;;;;;;5072716;28;20004;-89
2022/12/04 10:35:21;;;;;;;;;;;10.90;88.80;;;;;;5075622;28;19934;-89
2022/12/04 10:37:50;;;;;;;;;;;11.00;88.80;;;;;;5076435;28;20031;-89
2022/12/04 10:40:19;;;;;;;;;;;10.90;88.80;;;;;;5076716;28;19981;-89
2022/12/04 10:42:48;;;;;;;;;;;11.00;88.40;;;;;;5076430;28;19950;-89
2022/12/04 10:45:13;;;;;;;;;;;11.00;88.60;;;;;;5076634;28;19944;-89
2022/12/04 10:47:43;;;;;;;;;;;11.00;88.40;;;;;;5076323;28;20378;-89
2022/12/04 10:50:15;;;;;;;;;;;11.00;88.30;;;;;;5076290;28;19942;-89
2022/12/04 10:52:40;;;;;;;;;;;11.10;88.40;;;;;;5076152;28;20062;-89
2022/12/04 10:55:06;;;;;;;;;;;11.10;87.80;;;;;;5076139;28;19986;-89
2022/12/04 10:57:36;;;;;;;;;;;11.10;87.80;;;;;;5058111;28;20450;-89
2022/12/04 11:00:04;;;;;;;;;;;11.20;87.90;;;;;;5076110;28;19937;-90
2022/12/04 11:02:31;;;;;;;;;;;11.10;88.00;;;;;;5076075;28;20445;-89
2022/12/04 11:05:02;;;;;;;;;;;10.90;87.90;;;;;;5076021;28;20472;-89
2022/12/04 11:07:35;;;;;;;;;;;10.90;88.20;;;;;;5076198;28;19943;-89
2022/12/04 11:10:04;;;;;;;;;;;10.80;88.10;;;;;;5075945;28;19946;-89
2022/12/04 11:12:31;;;;;;;;;;;10.80;88.60;;;;;;5075834;28;20422;-89
2022/12/04 11:15:12;;;;;;;;;;;10.70;88.80;;;;;;5075842;28;19948;-89
2022/12/04 11:17:37;;;;;;;;;;;10.60;89.00;;;;;;5075928;28;19960;-89
2022/12/04 11:20:07;;;;;;;;;;;10.60;89.20;;;;;;5075771;28;20447;-89
2022/12/04 11:22:34;;;;;;;;;;;10.60;89.40;;;;;;5075666;28;19939;-89
2022/12/04 11:25:00;;;;;;;;;;;10.50;89.20;;;;;;5075499;28;20512;-89
2022/12/04 11:27:31;;;;;;;;;;;10.50;89.50;;;;;;5075639;28;19938;-89
2022/12/04 11:29:59;;;;;;;;;;;10.50;89.60;;;;;;5075474;28;19952;-89
2022/12/04 11:32:27;;;;;;;;;;;10.50;89.60;;;;;;5075578;28;19996;-89
2022/12/04 11:34:54;;;;;;;;;;;10.50;89.70;;;;;;5075493;28;19941;-89
2022/12/04 11:37:31;;;;;;;;;;;10.50;89.90;;;;;;5075384;28;20428;-89
2022/12/04 11:39:56;;;;;;;;;;;10.40;89.40;;;;;;5075417;28;19949;-89
2022/12/04 11:42:24;;;;;;;;;;;10.40;89.70;;;;;;5075373;28;19942;-89
2022/12/04 11:44:59;;;;;;;;;;;10.40;89.70;;;;;;5074990;28;19941;-89
2022/12/04 11:47:29;;;;;;;;;;;10.40;89.80;;;;;;5074728;28;19938;-89
2022/12/04 11:50:00;;;;;;;;;;;10.40;89.70;;;;;;5075247;28;19944;-89
2022/12/04 11:52:44;;;;;;;;;;;10.30;89.70;;;;;;5075300;28;20047;-89
2022/12/04 11:55:35;;;;;;;;;;;10.30;89.90;;;;;;5074856;28;19995;-89
2022/12/04 11:58:01;;;;;;;;;;;10.20;89.90;;;;;;5043976;28;20035;-89
2022/12/04 12:00:27;;;;;;;;;;;10.20;90.00;;;;;;5075023;28;19945;-89
2022/12/04 12:03:02;;;;;;;;;;;10.20;90.30;;;;;;5074992;28;19940;-89
2022/12/04 12:05:46;;;;;;;;;;;10.10;90.50;;;;;;5074891;28;19947;-89
2022/12/04 12:08:30;;;;;;;;;;;10.20;90.50;;;;;;5074883;28;19996;-89
2022/12/04 12:10:55;;;;;;;;;;;10.10;90.60;;;;;;5075084;28;19970;-89
2022/12/04 12:13:40;;;;;;;;;;;10.10;90.70;;;;;;5074721;28;20343;-90
2022/12/04 12:16:12;;;;;;;;;;;10.10;90.90;;;;;;5073430;28;19967;-89
2022/12/04 12:18:40;;;;;;;;;;;10.10;91.00;;;;;;5074629;28;19961;-89
2022/12/04 12:21:06;;;;;;;;;;;10.00;91.40;;;;;;5074598;28;19945;-89
2022/12/04 12:23:34;;;;;;;;;;;10.00;91.50;;;;;;5074309;28;20374;-89
2022/12/04 12:26:17;;;;;;;;;;;9.90;91.60;;;;;;5073214;28;20478;-89
2022/12/04 12:28:42;;;;;;;;;;;9.90;91.70;;;;;;5073149;28;19946;-90
2022/12/04 12:31:43;;;;;;;;;;;10.00;92.00;;;;;;5074379;28;19947;-89
2022/12/04 12:34:09;;;;;;;;;;;10.00;92.00;;;;;;4992667;28;20016;-89
2022/12/04 12:36:37;;;;;;;;;;;10.00;92.30;;;;;;5057231;28;20015;-89
2022/12/04 12:39:09;;;;;;;;;;;10.00;92.40;;;;;;5074243;28;20295;-89
2022/12/04 12:41:42;;;;;;;;;;;10.00;92.50;;;;;;5074426;28;19974;-89
2022/12/04 12:44:14;;;;;;;;;;;10.00;92.60;;;;;;5074200;28;19947;-90
2022/12/04 12:46:47;;;;;;;;;;;9.90;92.60;;;;;;5072773;28;20354;-89
2022/12/04 12:49:25;;;;;;;;;;;9.90;92.60;;;;;;5074033;28;20438;-89
2022/12/04 12:52:00;;;;;;;;;;;9.90;92.80;;;;;;5073925;28;19945;-89
2022/12/04 12:54:38;;;;;;;;;;;9.90;92.90;;;;;;5073828;28;19932;-89
2022/12/04 12:57:06;;;;;;;;;;;9.90;92.90;;;;;;5073570;28;19964;-89
2022/12/04 12:59:31;;;;;;;;;;;9.90;93.00;;;;;;5074090;28;19992;-89
2022/12/04 13:02:01;;;;;;;;;;;9.90;93.00;;;;;;5073821;28;19934;-89
2022/12/04 13:04:33;;;;;;;;;;;9.90;93.00;;;;;;5073800;28;20419;-89
2022/12/04 13:07:08;;;;;;;;;;;10.00;93.00;;;;;;5073742;28;20033;-89
2022/12/04 13:09:36;;;;;;;;;;;10.00;93.00;;;;;;5073602;28;19948;-89
2022/12/04 13:12:09;;;;;;;;;;;10.00;93.10;;;;;;5073667;28;19942;-89
2022/12/04 13:14:34;;;;;;;;;;;10.00;93.10;;;;;;5073628;28;19945;-89
2022/12/04 13:17:07;;;;;;;;;;;10.10;93.00;;;;;;5073487;28;20061;-89
2022/12/04 13:19:47;;;;;;;;;;;10.10;93.10;;;;;;5073506;28;20570;-90
2022/12/04 13:22:20;;;;;;;;;;;10.20;93.20;;;;;;5073533;28;19937;-89
2022/12/04 13:24:46;;;;;;;;;;;10.20;93.10;;;;;;5073344;28;20463;-89
2022/12/04 13:27:14;;;;;;;;;;;10.30;93.00;;;;;;5073400;28;19945;-89
2022/12/04 13:30:01;;;;;;;;;;;10.30;92.90;;;;;;5073392;28;19943;-90
2022/12/04 13:32:33;;;;;;;;;;;10.30;92.80;;;;;;5073348;28;19943;-89
2022/12/04 13:35:05;;;;;;;;;;;10.30;92.90;;;;;;5073606;28;20006;-89
2022/12/04 13:37:49;;;;;;;;;;;10.30;92.90;;;;;;5071900;28;20158;-89
2022/12/04 13:40:30;;;;;;;;;;;10.40;92.90;;;;;;5073238;28;19945;-89
2022/12/04 13:43:15;;;;;;;;;;;10.40;92.80;;;;;;5073462;28;19940;-89
2022/12/04 13:45:43;;;;;;;;;;;10.40;92.70;;;;;;5073211;28;19974;-89
2022/12/04 13:48:09;;;;;;;;;;;10.40;92.70;;;;;;5071869;28;20034;-89
2022/12/04 13:50:36;;;;;;;;;;;10.40;92.70;;;;;;5073175;28;20037;-89
2022/12/04 13:53:02;;;;;;;;;;;10.40;92.50;;;;;;5072957;28;19960;-89
2022/12/04 13:55:27;;;;;;;;;;;10.30;92.30;;;;;;5073012;28;19937;-89
2022/12/04 13:57:58;;;;;;;;;;;10.30;92.40;;;;;;5073020;28;19966;-89
2022/12/04 14:00:28;;;;;;;;;;;10.30;92.50;;;;;;5073061;28;20035;-89
2022/12/04 14:02:55;;;;;;;;;;;10.30;92.50;;;;;;5073282;28;20017;-90
2022/12/04 14:05:25;;;;;;;;;;;10.20;92.50;;;;;;5071790;28;19964;-89
2022/12/04 14:08:01;;;;;;;;;;;10.30;92.60;;;;;;5073263;28;19985;-89
2022/12/04 14:10:29;;;;;;;;;;;10.20;92.50;;;;;;5076748;28;19974;-89
2022/12/04 14:13:05;;;;;;;;;;;10.30;92.60;;;;;;5077074;28;19954;-89
2022/12/04 14:15:33;;;;;;;;;;;10.20;92.50;;;;;;5077014;28;19945;-89
2022/12/04 14:18:05;;;;;;;;;;;10.20;92.50;;;;;;5076964;28;20477;-89
2022/12/04 14:20:31;;;;;;;;;;;10.20;92.60;;;;;;5076987;28;19972;-89
2022/12/04 14:23:07;;;;;;;;;;;10.20;92.70;;;;;;5076706;28;20421;-89
2022/12/04 14:25:35;;;;;;;;;;;10.20;92.60;;;;;;5076848;28;19938;-89
2022/12/04 14:28:11;;;;;;;;;;;10.20;92.70;;;;;;5076846;28;20562;-89
2022/12/04 14:30:39;;;;;;;;;;;10.20;92.70;;;;;;5076275;28;20537;-90
2022/12/04 14:33:08;;;;;;;;;;;10.20;92.80;;;;;;5076676;28;20373;-89
2022/12/04 14:35:35;;;;;;;;;;;10.20;92.70;;;;;;5076687;28;19962;-89
2022/12/04 14:38:02;;;;;;;;;;;10.20;92.70;;;;;;5076557;28;19976;-90
2022/12/04 14:40:42;;;;;;;;;;;10.20;92.60;;;;;;5076567;28;19937;-89
2022/12/04 14:43:15;;;;;;;;;;;10.20;92.70;;;;;;5076486;28;19982;-89